Time;durP1;ratioP1;P1;durP2;ratioP2;P2;SDS_P1;SDS_P2;PMS_P1;PMS_P2;Temp;Humidity;BMP_temperature;BMP_pressure;BME280_temperature;BME280_humidity;BME280_pressure;Samples;Min_cycle;Max_cycle;Signal;HPM_P1;HPM_P2
2022/01/18 00:01:46;;;;;;;52.38;8.48;;;7.30;99.90;;;;;;5063533;28;20037;-66
2022/01/18 00:04:12;;;;;;;41.28;7.10;;;7.30;99.90;;;;;;5061927;28;20063;-66
2022/01/18 00:06:41;;;;;;;43.72;7.30;;;7.30;99.90;;;;;;5057827;28;20050;-66
2022/01/18 00:09:07;;;;;;;48.55;6.82;;;7.30;99.90;;;;;;5060752;28;20044;-66
2022/01/18 00:11:47;;;;;;;50.30;6.68;;;7.20;99.90;;;;;;5064296;28;20044;-66
2022/01/18 00:14:38;;;;;;;44.75;6.28;;;7.20;99.90;;;;;;5065443;28;20509;-66
2022/01/18 00:17:40;;;;;;;50.17;7.20;;;7.10;99.90;;;;;;5067713;28;20638;-66
2022/01/18 00:19:55;;;;;;;54.47;7.70;;;7.10;99.90;;;;;;5066697;28;20179;-66
2022/01/18 00:22:23;;;;;;;45.08;6.68;;;7.10;99.90;;;;;;5067912;28;20052;-66
2022/01/18 00:24:50;;;;;;;46.60;7.50;;;7.10;99.90;;;;;;5064391;28;20115;-66
2022/01/18 00:27:17;;;;;;;43.92;6.78;;;7.10;99.90;;;;;;5066516;28;20071;-66
2022/01/18 00:30:03;;;;;;;46.85;7.32;;;7.00;99.90;;;;;;5069215;28;20105;-66
2022/01/18 00:32:42;;;;;;;46.60;6.53;;;7.00;99.90;;;;;;5064843;28;20107;-66
2022/01/18 00:35:07;;;;;;;59.03;7.07;;;6.90;99.90;;;;;;5064038;28;20033;-66
2022/01/18 00:37:39;;;;;;;46.03;7.20;;;6.90;99.90;;;;;;5068090;28;20040;-66
2022/01/18 00:40:07;;;;;;;39.67;6.28;;;6.80;99.90;;;;;;5065469;28;20037;-66
2022/01/18 00:42:33;;;;;;;44.67;6.10;;;6.90;99.90;;;;;;5066309;28;20033;-66
2022/01/18 00:44:59;;;;;;;49.45;6.65;;;6.80;99.90;;;;;;5066021;28;20044;-66
2022/01/18 00:47:25;;;;;;;46.65;6.35;;;6.80;99.90;;;;;;5068765;28;20151;-66
2022/01/18 00:49:59;;;;;;;48.75;7.03;;;6.80;99.90;;;;;;5064916;28;20071;-66
2022/01/18 00:52:26;;;;;;;52.65;6.80;;;6.80;99.90;;;;;;5064408;28;20044;-66
2022/01/18 00:54:52;;;;;;;48.15;6.60;;;6.80;99.90;;;;;;5065410;28;20112;-66
2022/01/18 00:57:18;;;;;;;44.60;7.13;;;6.80;99.90;;;;;;5066382;28;20467;-66
2022/01/18 00:59:46;;;;;;;47.13;6.93;;;6.70;99.90;;;;;;5065286;28;20033;-66
2022/01/18 01:02:12;;;;;;;43.35;6.70;;;6.70;99.90;;;;;;5064958;28;20480;-66
2022/01/18 01:04:43;;;;;;;44.33;6.57;;;6.70;99.90;;;;;;5063137;28;20122;-66
2022/01/18 01:07:09;;;;;;;43.67;6.60;;;6.70;99.90;;;;;;5064121;28;20115;-66
2022/01/18 01:09:35;;;;;;;41.85;6.07;;;6.60;99.90;;;;;;5070937;28;20126;-66
2022/01/18 01:12:01;;;;;;;42.83;5.90;;;6.70;99.90;;;;;;5065766;28;20040;-66
2022/01/18 01:14:28;;;;;;;48.85;6.57;;;6.60;99.90;;;;;;5064727;28;20491;-66
2022/01/18 01:19:43;;;;;;;50.53;7.30;;;6.50;99.90;;;;;;5059430;28;20045;-66
2022/01/18 01:44:46;;;;;;;50.50;6.55;;;6.30;99.90;;;;;;5049318;28;20430;-66
2022/01/18 01:47:18;;;;;;;50.80;6.97;;;6.30;99.90;;;;;;5064774;28;20053;-66
2022/01/18 01:49:44;;;;;;;44.95;7.22;;;6.30;99.90;;;;;;5067489;28;20352;-66
2022/01/18 01:52:11;;;;;;;40.83;6.30;;;6.30;99.90;;;;;;5062423;28;20032;-66
2022/01/18 01:54:38;;;;;;;50.92;7.32;;;6.20;99.90;;;;;;5063906;28;20036;-66
2022/01/18 01:57:05;;;;;;;46.28;5.97;;;6.20;99.90;;;;;;5064917;28;20040;-66
2022/01/18 01:59:31;;;;;;;45.25;6.57;;;6.20;99.90;;;;;;5068470;28;20041;-66
2022/01/18 02:01:57;;;;;;;51.55;6.63;;;6.20;99.90;;;;;;5063268;28;20134;-66
2022/01/18 02:04:22;;;;;;;42.95;5.90;;;6.20;99.90;;;;;;5063623;28;20127;-66
2022/01/18 02:06:48;;;;;;;59.10;7.07;;;6.20;99.90;;;;;;5065169;28;20072;-66
2022/01/18 02:09:14;;;;;;;47.15;7.07;;;6.20;99.90;;;;;;5068220;28;20036;-66
2022/01/18 02:11:40;;;;;;;63.90;7.88;;;6.20;99.90;;;;;;5062938;28;20347;-66
2022/01/18 02:14:11;;;;;;;41.80;6.72;;;6.20;99.90;;;;;;5066370;28;20033;-66
2022/01/18 02:22:06;;;;;;;59.83;8.13;;;6.20;99.90;;;;;;5064340;28;20052;-66
2022/01/18 02:24:32;;;;;;;49.10;8.20;;;6.20;99.90;;;;;;5062770;28;20148;-66
2022/01/18 02:26:57;;;;;;;59.00;9.13;;;6.20;99.90;;;;;;5047804;28;20601;-66
2022/01/18 02:29:23;;;;;;;68.40;8.98;;;6.10;99.90;;;;;;5062703;28;20051;-66
2022/01/18 02:31:49;;;;;;;47.70;8.38;;;6.20;99.90;;;;;;5065255;28;20036;-66
2022/01/18 02:34:19;;;;;;;54.17;8.10;;;6.20;99.90;;;;;;5061798;28;20036;-66
2022/01/18 02:36:45;;;;;;;66.68;8.95;;;6.20;99.90;;;;;;5064840;28;20063;-66
2022/01/18 02:39:14;;;;;;;65.53;9.52;;;6.20;99.90;;;;;;5064308;28;20045;-66
2022/01/18 02:41:40;;;;;;;60.42;8.45;;;6.30;99.90;;;;;;5062759;28;20523;-66
2022/01/18 02:44:12;;;;;;;60.72;7.95;;;6.30;99.90;;;;;;5060014;28;20029;-66
2022/01/18 02:46:38;;;;;;;75.40;9.65;;;6.30;99.90;;;;;;5066823;28;20044;-66
2022/01/18 02:49:05;;;;;;;58.95;9.13;;;6.20;99.90;;;;;;5061415;28;20040;-66
2022/01/18 02:51:33;;;;;;;68.68;7.70;;;6.30;99.90;;;;;;5062863;28;20053;-66
2022/01/18 02:54:05;;;;;;;52.78;7.72;;;6.30;99.90;;;;;;5062044;28;20039;-66
2022/01/18 02:56:35;;;;;;;50.33;6.68;;;6.20;99.90;;;;;;5062258;28;20079;-66
2022/01/18 02:59:13;;;;;;;36.17;5.95;;;6.30;99.90;;;;;;5063423;28;20282;-66
2022/01/18 03:04:23;;;;;;;34.40;4.75;;;6.20;99.90;;;;;;5063452;28;20083;-66
2022/01/18 03:06:49;;;;;;;40.58;5.32;;;6.20;99.90;;;;;;5062342;28;20048;-66
2022/01/18 03:09:15;;;;;;;37.72;5.22;;;6.20;99.90;;;;;;5062097;28;20638;-66
2022/01/18 03:11:41;;;;;;;46.63;6.10;;;6.20;99.90;;;;;;5066752;28;20032;-66
2022/01/18 03:14:06;;;;;;;48.55;6.30;;;6.20;99.90;;;;;;5065853;28;20473;-66
2022/01/18 03:16:33;;;;;;;44.40;5.80;;;6.20;99.90;;;;;;5072076;28;20146;-66
2022/01/18 03:18:58;;;;;;;44.83;5.35;;;6.20;99.90;;;;;;5065867;28;20052;-66
2022/01/18 03:21:24;;;;;;;44.22;5.95;;;6.20;99.90;;;;;;5060088;28;20028;-66
2022/01/18 03:23:54;;;;;;;36.22;6.88;;;6.20;99.90;;;;;;5059574;28;20256;-66
2022/01/18 03:26:30;;;;;;;53.00;5.93;;;6.30;99.90;;;;;;5060834;28;20086;-66
2022/01/18 03:28:56;;;;;;;43.33;6.30;;;6.30;99.90;;;;;;5057555;28;20545;-66
2022/01/18 03:31:22;;;;;;;44.00;5.13;;;6.30;99.90;;;;;;5059632;28;20040;-66
2022/01/18 03:33:47;;;;;;;40.47;4.85;;;6.30;99.90;;;;;;5063188;28;20128;-66
2022/01/18 03:36:13;;;;;;;40.60;4.65;;;6.40;99.90;;;;;;5063130;28;20110;-66
2022/01/18 03:38:38;;;;;;;41.60;4.88;;;6.40;99.90;;;;;;5062690;28;20103;-66
2022/01/18 03:41:04;;;;;;;40.17;5.18;;;6.40;99.90;;;;;;5061519;28;20051;-66
2022/01/18 03:43:31;;;;;;;32.35;4.70;;;6.40;99.90;;;;;;5060635;28;20065;-66
2022/01/18 03:46:02;;;;;;;28.83;4.28;;;6.40;99.90;;;;;;5064266;28;20393;-66
2022/01/18 03:48:32;;;;;;;29.10;4.32;;;6.30;99.90;;;;;;5067185;28;20060;-66
2022/01/18 03:50:59;;;;;;;27.77;4.30;;;6.40;99.90;;;;;;5062209;28;20033;-66
2022/01/18 03:53:26;;;;;;;26.23;3.92;;;6.40;99.90;;;;;;5064621;28;20045;-66
2022/01/18 03:55:52;;;;;;;32.95;5.15;;;6.40;99.90;;;;;;5074654;28;20032;-66
2022/01/18 03:58:18;;;;;;;34.72;4.78;;;6.40;99.90;;;;;;5069493;28;20124;-66
2022/01/18 04:00:44;;;;;;;32.17;4.50;;;6.40;99.90;;;;;;5067503;28;20036;-66
2022/01/18 04:03:10;;;;;;;31.67;4.45;;;6.40;99.90;;;;;;5070832;28;20516;-66
2022/01/18 04:05:36;;;;;;;28.13;4.03;;;6.50;99.90;;;;;;5063260;28;20032;-66
2022/01/18 04:08:01;;;;;;;34.05;4.80;;;6.40;99.90;;;;;;5062424;28;20040;-66
2022/01/18 04:10:27;;;;;;;33.30;4.53;;;6.50;99.90;;;;;;5045008;28;20049;-66
2022/01/18 04:12:55;;;;;;;33.17;4.68;;;6.50;99.90;;;;;;5063172;28;20389;-67
2022/01/18 04:15:23;;;;;;;23.50;4.57;;;6.50;99.90;;;;;;5061322;28;20068;-66
2022/01/18 04:18:16;;;;;;;26.88;4.47;;;6.50;99.90;;;;;;5060768;28;20438;-66
2022/01/18 04:26:52;;;;;;;29.83;3.83;;;6.50;99.90;;;;;;5060590;28;20108;-66
2022/01/18 04:28:57;;;;;;;30.85;4.03;;;6.50;99.90;;;;;;5062058;28;20084;-66
2022/01/18 04:31:25;;;;;;;28.38;3.72;;;6.50;99.90;;;;;;5067772;28;20381;-66
2022/01/18 04:33:51;;;;;;;21.25;3.95;;;6.50;99.90;;;;;;5061401;28;20037;-66
2022/01/18 04:36:17;;;;;;;33.42;4.22;;;6.50;99.90;;;;;;5062795;28;20095;-66
2022/01/18 04:38:42;;;;;;;28.17;3.60;;;6.50;99.90;;;;;;5065522;28;20137;-66
2022/01/18 04:41:12;;;;;;;19.23;3.70;;;6.50;99.90;;;;;;5061362;28;20039;-65
2022/01/18 04:48:53;;;;;;;29.17;3.60;;;6.40;99.90;;;;;;5062172;28;20127;-65
2022/01/18 04:51:19;;;;;;;19.17;2.83;;;6.30;99.90;;;;;;5058660;28;20170;-65
2022/01/18 04:53:51;;;;;;;25.90;3.65;;;6.30;99.90;;;;;;5060801;28;20098;-65
2022/01/18 04:56:19;;;;;;;24.00;3.20;;;6.30;99.90;;;;;;5068003;28;20093;-65
2022/01/18 04:58:45;;;;;;;25.25;4.63;;;6.30;99.90;;;;;;5066451;28;20074;-65
2022/01/18 05:01:12;;;;;;;28.65;4.50;;;6.30;99.90;;;;;;5066786;28;20040;-65
2022/01/18 05:03:38;;;;;;;23.38;3.75;;;6.30;99.90;;;;;;5065678;28;20044;-65
2022/01/18 05:06:10;;;;;;;26.60;3.75;;;6.30;99.90;;;;;;5065208;28;20044;-66
2022/01/18 05:08:37;;;;;;;27.15;4.70;;;6.30;99.90;;;;;;5064368;28;20052;-66
2022/01/18 05:11:04;;;;;;;25.13;4.28;;;6.20;99.90;;;;;;5069311;28;20037;-65
2022/01/18 05:16:42;;;;;;;24.95;4.55;;;6.30;99.90;;;;;;5063794;28;20052;-65
2022/01/18 05:21:28;;;;;;;17.33;4.60;;;6.20;99.90;;;;;;5057965;28;20423;-65
2022/01/18 05:23:55;;;;;;;29.60;4.50;;;6.10;99.90;;;;;;5053823;28;20044;-65
2022/01/18 05:26:21;;;;;;;23.00;5.30;;;6.10;99.90;;;;;;5063586;28;20045;-65
2022/01/18 05:28:47;;;;;;;17.33;4.30;;;6.10;99.90;;;;;;5064497;28;20055;-65
2022/01/18 05:31:13;;;;;;;23.92;4.53;;;6.10;99.90;;;;;;5067404;28;20079;-66
2022/01/18 05:33:40;;;;;;;19.75;3.92;;;6.10;99.90;;;;;;5066024;28;20068;-66
2022/01/18 05:36:07;;;;;;;22.23;4.28;;;6.10;99.90;;;;;;5053700;28;20060;-66
2022/01/18 05:38:33;;;;;;;20.67;4.65;;;6.10;99.90;;;;;;5059947;28;20040;-66
2022/01/18 05:41:00;;;;;;;18.08;4.35;;;6.10;99.90;;;;;;5063592;28;20043;-65
2022/01/18 05:43:26;;;;;;;20.17;4.57;;;6.10;99.90;;;;;;5060757;28;20048;-65
2022/01/18 05:45:51;;;;;;;24.73;4.18;;;6.10;99.90;;;;;;5064235;28;20045;-66
2022/01/18 05:48:17;;;;;;;23.50;4.82;;;6.10;99.90;;;;;;5067373;28;20037;-66
2022/01/18 05:50:43;;;;;;;19.33;3.95;;;6.10;99.90;;;;;;5067395;28;20538;-66
2022/01/18 05:53:08;;;;;;;19.67;4.40;;;6.10;99.90;;;;;;5060852;28;20045;-66
2022/01/18 05:55:34;;;;;;;19.45;4.25;;;6.10;99.90;;;;;;5058514;28;20369;-66
2022/01/18 05:58:00;;;;;;;21.23;4.85;;;6.10;99.90;;;;;;5057764;28;20492;-66
2022/01/18 06:00:27;;;;;;;19.83;4.50;;;6.10;99.90;;;;;;5063320;28;20079;-66
2022/01/18 06:08:07;;;;;;;18.60;4.05;;;6.20;99.90;;;;;;5051556;28;20190;-66
2022/01/18 06:10:33;;;;;;;20.02;4.25;;;6.10;99.90;;;;;;5058066;28;20056;-66
2022/01/18 06:13:03;;;;;;;18.63;4.07;;;6.20;99.90;;;;;;5075126;28;20141;-66
2022/01/18 06:15:32;;;;;;;17.90;4.00;;;6.20;99.90;;;;;;5064023;28;20059;-66
2022/01/18 06:17:58;;;;;;;17.42;4.32;;;6.20;99.90;;;;;;5059272;28;20428;-66
2022/01/18 06:20:25;;;;;;;20.67;4.13;;;6.10;99.90;;;;;;5058617;28;20095;-66
2022/01/18 06:22:51;;;;;;;19.00;3.92;;;6.20;99.90;;;;;;5065357;28;20110;-66
2022/01/18 06:25:20;;;;;;;15.57;4.25;;;6.20;99.90;;;;;;5059445;28;20063;-66
2022/01/18 06:27:47;;;;;;;18.88;3.83;;;6.10;99.90;;;;;;5042650;28;20084;-66
2022/01/18 06:30:13;;;;;;;14.77;3.85;;;6.10;99.90;;;;;;5073044;28;20040;-66
2022/01/18 06:32:43;;;;;;;40.85;19.98;;;6.10;99.90;;;;;;5059613;28;20058;-66
2022/01/18 06:35:10;;;;;;;33.33;14.60;;;6.10;99.90;;;;;;5055094;28;20032;-66
2022/01/18 06:37:36;;;;;;;26.38;6.32;;;6.10;99.90;;;;;;5058331;28;20036;-66
2022/01/18 06:40:04;;;;;;;15.60;4.50;;;6.10;99.90;;;;;;5054883;28;20504;-66
2022/01/18 06:42:31;;;;;;;15.15;4.40;;;6.10;99.90;;;;;;5071142;28;20072;-65
2022/01/18 06:44:57;;;;;;;17.55;4.82;;;6.10;99.90;;;;;;5053389;28;20116;-66
2022/01/18 06:47:23;;;;;;;21.33;4.85;;;6.10;99.90;;;;;;5058489;28;20426;-66
2022/01/18 06:49:49;;;;;;;19.30;5.32;;;6.00;99.90;;;;;;5058507;28;20044;-66
2022/01/18 06:52:14;;;;;;;16.92;4.30;;;6.10;99.90;;;;;;5061447;28;20039;-66
2022/01/18 06:54:40;;;;;;;21.80;5.03;;;6.10;99.90;;;;;;5050325;28;20497;-66
2022/01/18 06:57:06;;;;;;;21.23;5.13;;;6.00;99.90;;;;;;5058519;28;20361;-66
2022/01/18 06:59:34;;;;;;;24.90;5.68;;;6.00;99.90;;;;;;5059536;28;20037;-66
2022/01/18 07:02:00;;;;;;;19.83;5.10;;;6.10;99.90;;;;;;5059896;28;20037;-66
2022/01/18 07:04:25;;;;;;;15.63;4.80;;;6.00;99.90;;;;;;5062454;28;20124;-66
2022/01/18 07:06:51;;;;;;;18.20;4.88;;;6.00;99.90;;;;;;5066689;28;20392;-66
2022/01/18 07:09:22;;;;;;;18.88;5.18;;;6.00;99.90;;;;;;5058163;28;20041;-66
2022/01/18 07:11:49;;;;;;;21.95;5.65;;;6.00;99.90;;;;;;5060927;28;20123;-66
2022/01/18 07:14:14;;;;;;;22.85;6.05;;;6.00;99.90;;;;;;5058277;28;20044;-66
2022/01/18 07:16:40;;;;;;;16.52;5.63;;;6.00;99.90;;;;;;5054664;28;20195;-66
2022/01/18 07:19:06;;;;;;;19.90;5.75;;;5.90;99.90;;;;;;5060779;28;20045;-66
2022/01/18 07:21:32;;;;;;;22.98;6.07;;;6.00;99.90;;;;;;5061624;28;20379;-66
2022/01/18 07:24:04;;;;;;;23.48;6.55;;;5.90;99.90;;;;;;5062911;28;20048;-66
2022/01/18 07:26:31;;;;;;;24.58;7.43;;;6.00;99.90;;;;;;5061090;28;20036;-66
2022/01/18 07:28:57;;;;;;;21.27;6.22;;;5.90;99.90;;;;;;5056350;28;20068;-66
2022/01/18 07:31:23;;;;;;;22.60;6.78;;;6.00;99.90;;;;;;5067410;28;20400;-66
2022/01/18 07:33:48;;;;;;;19.65;5.80;;;6.00;99.90;;;;;;5058597;28;20051;-66
2022/01/18 07:36:14;;;;;;;23.65;6.13;;;5.90;99.90;;;;;;5060832;28;20033;-66
2022/01/18 07:38:40;;;;;;;20.63;5.80;;;5.90;99.90;;;;;;5057060;28;20040;-66
2022/01/18 07:41:06;;;;;;;19.58;5.40;;;6.00;99.90;;;;;;5058033;28;20056;-66
2022/01/18 07:43:31;;;;;;;19.27;5.25;;;6.00;99.90;;;;;;5053056;28;20039;-66
2022/01/18 07:45:57;;;;;;;17.45;4.88;;;6.00;99.90;;;;;;5062172;28;20037;-66
2022/01/18 07:48:24;;;;;;;20.95;6.00;;;6.00;99.90;;;;;;5060299;28;20077;-66
2022/01/18 07:50:53;;;;;;;23.27;5.22;;;6.00;99.90;;;;;;5056374;28;20032;-66
2022/01/18 07:53:20;;;;;;;20.15;5.53;;;6.00;99.90;;;;;;5054446;28;20087;-66
2022/01/18 07:55:47;;;;;;;18.52;5.43;;;6.00;99.90;;;;;;5058123;28;20095;-66
2022/01/18 07:58:13;;;;;;;18.27;5.55;;;6.00;99.90;;;;;;5056811;28;20037;-66
2022/01/18 08:00:38;;;;;;;16.33;5.10;;;6.00;99.90;;;;;;5060815;28;20052;-66
2022/01/18 08:03:04;;;;;;;15.80;4.82;;;6.10;99.90;;;;;;5057391;28;20078;-66
2022/01/18 08:05:30;;;;;;;15.98;4.18;;;6.10;99.90;;;;;;5059689;28;20109;-66
2022/01/18 08:07:56;;;;;;;21.85;4.72;;;6.10;99.90;;;;;;5051769;28;20043;-66
2022/01/18 08:10:23;;;;;;;14.60;3.42;;;6.10;99.90;;;;;;5059853;28;20048;-66
2022/01/18 08:12:49;;;;;;;18.23;3.70;;;6.10;99.90;;;;;;5055072;28;20041;-66
2022/01/18 08:15:18;;;;;;;16.15;4.22;;;6.10;99.90;;;;;;5057352;28;20416;-66
2022/01/18 08:17:47;;;;;;;15.38;3.90;;;6.10;99.90;;;;;;5054703;28;20178;-66
2022/01/18 08:20:14;;;;;;;19.45;3.92;;;6.20;99.90;;;;;;5055717;28;20037;-66
2022/01/18 08:22:44;;;;;;;15.23;3.67;;;6.20;99.90;;;;;;5059316;28;20084;-67
2022/01/18 08:25:15;;;;;;;12.10;3.15;;;6.20;99.90;;;;;;5059119;28;20060;-66
2022/01/18 08:27:42;;;;;;;22.00;4.10;;;6.20;99.90;;;;;;5054674;28;20037;-66
2022/01/18 08:30:10;;;;;;;14.50;3.70;;;6.20;99.90;;;;;;5058077;28;20164;-66
2022/01/18 08:32:37;;;;;;;11.25;3.58;;;6.30;99.90;;;;;;5058594;28;20076;-66
2022/01/18 08:35:04;;;;;;;21.88;3.88;;;6.30;99.90;;;;;;5070404;28;20028;-66
2022/01/18 08:37:30;;;;;;;18.85;4.38;;;6.30;99.90;;;;;;5061174;28;20075;-67
2022/01/18 08:39:56;;;;;;;16.60;4.30;;;6.30;99.90;;;;;;5067252;28;20047;-66
2022/01/18 08:42:21;;;;;;;13.48;4.45;;;6.30;99.90;;;;;;5067431;28;20036;-66
2022/01/18 08:44:47;;;;;;;18.77;4.60;;;6.30;99.90;;;;;;5058174;28;20570;-66
2022/01/18 08:47:15;;;;;;;15.20;5.15;;;6.40;99.90;;;;;;5068259;28;20079;-66
2022/01/18 08:49:41;;;;;;;15.85;4.93;;;6.40;99.90;;;;;;5067775;28;20044;-66
2022/01/18 08:52:07;;;;;;;14.65;4.80;;;6.40;99.90;;;;;;5061827;28;20108;-66
2022/01/18 08:54:34;;;;;;;18.50;6.18;;;6.40;99.90;;;;;;5055870;28;20086;-66
2022/01/18 08:57:03;;;;;;;17.63;5.93;;;6.40;99.90;;;;;;5061884;28;20076;-66
2022/01/18 08:59:30;;;;;;;19.50;6.05;;;6.40;99.90;;;;;;5067089;28;20409;-66
2022/01/18 09:01:58;;;;;;;20.23;6.13;;;6.50;99.90;;;;;;5061730;28;20118;-66
2022/01/18 09:04:24;;;;;;;21.02;7.43;;;6.50;99.90;;;;;;5051790;28;20044;-66
2022/01/18 09:06:52;;;;;;;21.55;7.80;;;6.50;99.90;;;;;;5051521;28;20727;-66
2022/01/18 09:09:18;;;;;;;22.25;7.90;;;6.50;99.90;;;;;;5058556;28;20059;-66
2022/01/18 09:11:47;;;;;;;27.80;8.45;;;6.50;99.90;;;;;;5060981;28;20135;-66
2022/01/18 09:14:14;;;;;;;22.05;8.60;;;6.60;99.90;;;;;;5057391;28;20037;-66
2022/01/18 09:16:40;;;;;;;23.65;8.32;;;6.50;99.90;;;;;;5060692;28;20099;-66
2022/01/18 09:19:06;;;;;;;19.42;8.70;;;6.60;99.90;;;;;;5060960;28;20453;-66
2022/01/18 09:21:33;;;;;;;28.23;8.68;;;6.70;99.90;;;;;;5057850;28;20552;-66
2022/01/18 09:24:00;;;;;;;23.77;9.57;;;6.70;99.90;;;;;;5059513;28;20037;-66
2022/01/18 09:26:26;;;;;;;23.23;9.93;;;6.70;99.90;;;;;;5059128;28;20063;-66
2022/01/18 09:28:51;;;;;;;20.55;8.95;;;6.60;99.90;;;;;;5066216;28;20036;-66
2022/01/18 09:31:17;;;;;;;19.02;9.38;;;6.70;99.90;;;;;;5065321;28;20459;-66
2022/01/18 09:33:43;;;;;;;22.10;8.98;;;6.70;99.90;;;;;;5060291;28;20033;-66
2022/01/18 09:36:09;;;;;;;20.95;9.05;;;6.80;99.90;;;;;;5055181;28;20040;-66
2022/01/18 09:38:35;;;;;;;18.08;8.07;;;6.80;99.90;;;;;;5059429;28;20105;-67
2022/01/18 09:41:08;;;;;;;20.60;8.25;;;6.80;99.90;;;;;;5062387;28;20086;-67
2022/01/18 09:43:34;;;;;;;21.15;8.93;;;6.90;99.90;;;;;;5062718;28;20502;-67
2022/01/18 09:46:00;;;;;;;24.27;8.98;;;6.90;99.90;;;;;;5062221;28;20079;-66
2022/01/18 09:48:26;;;;;;;26.15;8.38;;;6.90;99.90;;;;;;5055255;28;20136;-66
2022/01/18 09:50:51;;;;;;;23.00;8.18;;;6.90;99.90;;;;;;5065509;28;20040;-66
2022/01/18 09:53:17;;;;;;;21.33;8.00;;;7.00;99.90;;;;;;5057564;28;20115;-66
2022/01/18 09:55:43;;;;;;;18.23;7.90;;;7.00;99.90;;;;;;5057898;28;20511;-66
2022/01/18 09:58:09;;;;;;;17.42;7.93;;;7.10;99.90;;;;;;5061320;28;20051;-66
2022/01/18 10:00:38;;;;;;;18.35;7.80;;;7.10;99.90;;;;;;5059916;28;20044;-66
2022/01/18 10:03:09;;;;;;;19.05;7.82;;;7.10;99.90;;;;;;5059337;28;20028;-66
2022/01/18 10:05:35;;;;;;;19.23;8.00;;;7.10;99.90;;;;;;5063756;28;20508;-66
2022/01/18 10:08:16;;;;;;;16.23;7.35;;;7.10;99.90;;;;;;5063593;28;20032;-67
2022/01/18 10:10:44;;;;;;;17.77;7.68;;;7.20;99.90;;;;;;5060670;28;20488;-67
2022/01/18 10:13:27;;;;;;;16.00;7.70;;;7.30;99.90;;;;;;5055218;28;20033;-67
2022/01/18 10:16:00;;;;;;;15.30;6.88;;;7.40;99.90;;;;;;5057407;28;20057;-67
2022/01/18 10:18:44;;;;;;;15.10;7.15;;;7.50;99.90;;;;;;5058895;28;20191;-67
2022/01/18 10:21:11;;;;;;;17.63;6.03;;;7.50;99.90;;;;;;5061023;28;20032;-67
2022/01/18 10:23:37;;;;;;;15.77;6.57;;;7.50;99.90;;;;;;5055133;28;20052;-67
2022/01/18 10:26:21;;;;;;;16.67;7.57;;;7.50;99.90;;;;;;5057773;28;20044;-67
2022/01/18 10:28:48;;;;;;;20.88;7.63;;;7.60;99.90;;;;;;5054793;28;20037;-67
2022/01/18 10:31:44;;;;;;;18.15;7.93;;;7.70;99.90;;;;;;5062969;28;20059;-67
2022/01/18 10:37:00;;;;;;;14.75;6.78;;;7.70;99.90;;;;;;5058378;28;20056;-67
2022/01/18 10:39:28;;;;;;;15.82;7.15;;;7.80;99.90;;;;;;5055974;28;20056;-67
2022/01/18 10:41:54;;;;;;;17.88;6.70;;;7.80;99.90;;;;;;5056946;28;20033;-67
2022/01/18 10:44:20;;;;;;;17.55;6.63;;;7.90;99.90;;;;;;5061915;28;20489;-67
2022/01/18 10:46:51;;;;;;;14.45;6.40;;;7.90;99.90;;;;;;5054539;28;20048;-67
2022/01/18 10:49:40;;;;;;;16.02;6.28;;;8.10;99.90;;;;;;5057059;28;20472;-66
2022/01/18 10:52:12;;;;;;;14.95;6.18;;;8.10;99.90;;;;;;5055533;28;20052;-67
2022/01/18 10:54:41;;;;;;;15.43;5.57;;;8.20;99.90;;;;;;5059749;28;20056;-67
2022/01/18 10:57:08;;;;;;;11.98;5.03;;;8.10;99.90;;;;;;5056770;28;20036;-67
2022/01/18 10:59:38;;;;;;;15.57;5.43;;;8.10;99.90;;;;;;5065501;28;20075;-67
2022/01/18 11:02:13;;;;;;;14.85;4.65;;;8.10;99.90;;;;;;5059153;28;20043;-67
2022/01/18 11:04:59;;;;;;;12.00;4.57;;;8.00;99.90;;;;;;5057772;28;20101;-67
2022/01/18 11:07:28;;;;;;;14.43;4.35;;;8.00;99.90;;;;;;5055005;28;20514;-67
2022/01/18 11:10:03;;;;;;;11.38;3.88;;;7.90;99.90;;;;;;5056382;28;20040;-67
2022/01/18 11:12:30;;;;;;;11.68;2.53;;;7.90;99.90;;;;;;5054457;28;20045;-67
2022/01/18 11:15:07;;;;;;;13.77;2.90;;;7.90;99.90;;;;;;5054350;28;20469;-67
2022/01/18 11:17:39;;;;;;;8.27;2.30;;;7.90;99.90;;;;;;5058739;28;20059;-67
2022/01/18 11:20:06;;;;;;;11.98;2.55;;;7.80;99.90;;;;;;5056288;28;20037;-67
2022/01/18 11:22:33;;;;;;;9.75;2.65;;;7.80;99.90;;;;;;5057469;28;20033;-67
2022/01/18 11:25:02;;;;;;;10.57;2.75;;;7.80;99.90;;;;;;5055975;28;20038;-67
2022/01/18 11:27:30;;;;;;;7.00;2.38;;;7.90;99.90;;;;;;5066036;28;20032;-67
2022/01/18 11:29:56;;;;;;;9.70;2.28;;;7.80;99.90;;;;;;5066734;28;20058;-65
2022/01/18 11:32:27;;;;;;;7.78;2.20;;;7.80;99.90;;;;;;5059758;28;20075;-66
2022/01/18 11:35:10;;;;;;;10.48;2.50;;;7.80;99.90;;;;;;5053254;28;20076;-66
2022/01/18 11:37:54;;;;;;;8.82;2.60;;;7.80;99.90;;;;;;5059129;28;20140;-66
2022/01/18 11:40:20;;;;;;;9.77;2.63;;;7.80;99.90;;;;;;5057441;28;20552;-66
2022/01/18 11:42:53;;;;;;;7.72;2.30;;;7.80;99.90;;;;;;5058934;28;20454;-66
2022/01/18 11:45:24;;;;;;;14.02;2.95;;;7.80;99.90;;;;;;5065460;28;20068;-66
2022/01/18 11:48:03;;;;;;;11.40;2.50;;;7.90;99.90;;;;;;5057907;28;20044;-66
2022/01/18 11:50:32;;;;;;;7.93;2.33;;;7.90;99.90;;;;;;5064349;28;20043;-66
2022/01/18 11:53:54;;;;;;;11.82;2.95;;;7.90;99.90;;;;;;5061362;28;20032;-66
2022/01/18 11:56:35;;;;;;;11.90;2.67;;;7.90;99.90;;;;;;5056186;28;20075;-66
2022/01/18 11:59:22;;;;;;;7.07;2.20;;;7.90;99.90;;;;;;5064011;28;20049;-66
2022/01/18 12:01:52;;;;;;;7.65;2.03;;;7.90;99.90;;;;;;5058834;28;20087;-66
2022/01/18 12:04:48;;;;;;;9.68;2.28;;;7.90;99.90;;;;;;5057387;28;20031;-66
2022/01/18 12:07:33;;;;;;;9.02;2.08;;;7.90;99.90;;;;;;5066246;28;20338;-66
2022/01/18 12:10:00;;;;;;;11.20;2.88;;;7.80;99.90;;;;;;5062284;28;20493;-66
2022/01/18 12:12:41;;;;;;;11.43;2.15;;;7.80;99.90;;;;;;5065197;28;20048;-66
2022/01/18 12:15:16;;;;;;;13.27;1.88;;;7.80;99.90;;;;;;5062818;28;20057;-66
2022/01/18 12:17:48;;;;;;;10.55;1.90;;;7.80;99.90;;;;;;5061011;28;20048;-66
2022/01/18 12:20:32;;;;;;;10.95;2.40;;;7.80;99.90;;;;;;5069709;28;20113;-66
2022/01/18 12:23:05;;;;;;;9.97;2.13;;;7.80;99.90;;;;;;5063315;28;20489;-66
2022/01/18 12:25:34;;;;;;;13.93;2.30;;;7.80;99.90;;;;;;5060760;28;20060;-66
2022/01/18 12:28:47;;;;;;;7.70;2.15;;;7.80;99.90;;;;;;5062733;28;20050;-66
2022/01/18 12:34:49;;;;;;;10.82;2.92;;;7.70;99.90;;;;;;5065975;28;20202;-66
2022/01/18 12:37:17;;;;;;;7.32;2.72;;;7.60;99.90;;;;;;5058404;28;20036;-66
2022/01/18 12:45:03;;;;;;;11.80;3.30;;;7.60;99.90;;;;;;5063441;28;20055;-67
2022/01/18 12:47:30;;;;;;;10.25;3.75;;;7.60;99.90;;;;;;5066733;28;20131;-67
2022/01/18 12:49:55;;;;;;;11.27;3.50;;;7.60;99.90;;;;;;5050682;28;20043;-67
2022/01/18 12:52:22;;;;;;;14.57;4.03;;;7.60;99.90;;;;;;5070245;28;20086;-67
2022/01/18 12:54:48;;;;;;;13.90;4.55;;;7.60;99.90;;;;;;5069292;28;20122;-67
2022/01/18 12:57:20;;;;;;;12.48;3.47;;;7.50;99.90;;;;;;5070084;28;20078;-67
2022/01/18 13:00:08;;;;;;;12.75;4.15;;;7.60;99.90;;;;;;5061974;28;20116;-67
2022/01/18 13:02:35;;;;;;;11.77;4.20;;;7.60;99.90;;;;;;5061244;28;20035;-67
2022/01/18 13:05:04;;;;;;;18.65;5.53;;;7.50;99.90;;;;;;5066460;28;20496;-67
2022/01/18 13:07:30;;;;;;;14.07;5.07;;;7.50;99.90;;;;;;5066279;28;20091;-67
2022/01/18 13:09:58;;;;;;;14.15;4.70;;;7.50;99.90;;;;;;5060687;28;20070;-67
2022/01/18 13:12:37;;;;;;;16.50;5.85;;;7.50;99.90;;;;;;5061318;28;20059;-67
2022/01/18 13:15:06;;;;;;;13.93;5.53;;;7.50;99.90;;;;;;5064435;28;20693;-67
2022/01/18 13:26:37;;;;;;;14.60;5.72;;;7.50;99.90;;;;;;5060025;28;20137;-67
2022/01/18 13:29:19;;;;;;;17.70;6.07;;;7.50;99.90;;;;;;5058105;28;20067;-67
2022/01/18 13:31:47;;;;;;;14.77;5.38;;;7.50;99.90;;;;;;5061229;28;20057;-67
2022/01/18 13:34:14;;;;;;;16.73;5.95;;;7.50;99.90;;;;;;5059055;28;20041;-67
2022/01/18 13:37:03;;;;;;;15.75;6.95;;;7.60;99.90;;;;;;5063697;28;20075;-67
2022/01/18 13:39:33;;;;;;;17.02;6.25;;;7.60;99.90;;;;;;5057192;28;20448;-67
2022/01/18 13:42:01;;;;;;;17.63;6.55;;;7.60;99.90;;;;;;5063576;28;20087;-67
2022/01/18 13:44:30;;;;;;;19.08;5.90;;;7.60;99.90;;;;;;5056746;28;20037;-67
2022/01/18 13:47:10;;;;;;;14.00;6.32;;;7.60;99.90;;;;;;5055938;28;20391;-67
2022/01/18 13:49:36;;;;;;;15.23;5.93;;;7.60;99.90;;;;;;5056342;28;20052;-67
2022/01/18 13:52:06;;;;;;;11.45;5.00;;;7.60;99.90;;;;;;5061429;28;20041;-67
2022/01/18 13:54:53;;;;;;;14.40;4.97;;;7.60;99.90;;;;;;5053391;28;20079;-67
2022/01/18 13:57:22;;;;;;;12.45;5.43;;;7.60;99.90;;;;;;5058826;28;20105;-67
2022/01/18 13:59:50;;;;;;;17.77;5.65;;;7.50;99.90;;;;;;5057507;28;20063;-67
2022/01/18 14:02:21;;;;;;;14.60;6.55;;;7.50;99.90;;;;;;5064648;28;20059;-67
2022/01/18 14:05:07;;;;;;;17.50;6.03;;;7.50;99.90;;;;;;5055550;28;20183;-67
2022/01/18 14:07:33;;;;;;;15.60;5.47;;;7.50;99.90;;;;;;5060675;28;20098;-66
2022/01/18 14:10:00;;;;;;;18.83;5.80;;;7.50;99.90;;;;;;5056750;28;20484;-66
2022/01/18 14:12:33;;;;;;;13.73;5.97;;;7.60;99.90;;;;;;5060730;28;20451;-66
2022/01/18 14:14:59;;;;;;;15.98;5.60;;;7.50;99.90;;;;;;5055029;28;20063;-67